Map

Track Data

SID SEASON NUMBER BASIN SUBBASIN NAME ISO_TIME NATURE LAT LON WMO_WIND WMO_PRES WMO_AGENCY TRACK_TYPE DIST2LAND LANDFALL IFLAG USA_AGENCY USA_ATCF_ID USA_LAT USA_LON USA_RECORD USA_STATUS USA_WIND USA_PRES USA_SSHS USA_R34_NE USA_R34_SE USA_R34_SW USA_R34_NW USA_R50_NE USA_R50_SE USA_R50_SW USA_R50_NW USA_R64_NE USA_R64_SE USA_R64_SW USA_R64_NW USA_POCI USA_ROCI USA_RMW USA_EYE TOKYO_LAT TOKYO_LON TOKYO_GRADE TOKYO_WIND TOKYO_PRES TOKYO_R50_DIR TOKYO_R50_LONG TOKYO_R50_SHORT TOKYO_R30_DIR TOKYO_R30_LONG TOKYO_R30_SHORT TOKYO_LAND CMA_LAT CMA_LON CMA_CAT CMA_WIND CMA_PRES HKO_LAT HKO_LON HKO_CAT HKO_WIND HKO_PRES NEWDELHI_LAT NEWDELHI_LON NEWDELHI_GRADE NEWDELHI_WIND NEWDELHI_PRES NEWDELHI_CI NEWDELHI_DP NEWDELHI_POCI REUNION_LAT REUNION_LON REUNION_TYPE REUNION_WIND REUNION_PRES REUNION_TNUM REUNION_CI REUNION_RMW REUNION_R34_NE REUNION_R34_SE REUNION_R34_SW REUNION_R34_NW REUNION_R50_NE REUNION_R50_SE REUNION_R50_SW REUNION_R50_NW REUNION_R64_NE REUNION_R64_SE REUNION_R64_SW REUNION_R64_NW BOM_LAT BOM_LON BOM_TYPE BOM_WIND BOM_PRES BOM_TNUM BOM_CI BOM_RMW BOM_R34_NE BOM_R34_SE BOM_R34_SW BOM_R34_NW BOM_R50_NE BOM_R50_SE BOM_R50_SW BOM_R50_NW BOM_R64_NE BOM_R64_SE BOM_R64_SW BOM_R64_NW BOM_ROCI BOM_POCI BOM_EYE BOM_POS_METHOD BOM_PRES_METHOD NADI_LAT NADI_LON NADI_CAT NADI_WIND NADI_PRES WELLINGTON_LAT WELLINGTON_LON WELLINGTON_WIND WELLINGTON_PRES DS824_LAT DS824_LON DS824_STAGE DS824_WIND DS824_PRES TD9636_LAT TD9636_LON TD9636_STAGE TD9636_WIND TD9636_PRES TD9635_LAT TD9635_LON TD9635_WIND TD9635_PRES TD9635_ROCI NEUMANN_LAT NEUMANN_LON NEUMANN_CLASS NEUMANN_WIND NEUMANN_PRES MLC_LAT MLC_LON MLC_CLASS MLC_WIND MLC_PRES USA_GUST BOM_GUST BOM_GUST_PER REUNION_GUST REUNION_GUST_PER USA_SEAHGT USA_SEARAD_NE USA_SEARAD_SE USA_SEARAD_SW USA_SEARAD_NW STORM_SPEED STORM_DIR
1909068S13056 1909 9 SI MM NOT_NAMED 1909-03-09 00:00:00 TS -13.2000 55.9000 main 623 593 _________O____ -1 -13.2000 55.9000 TC 7 264
1909068S13056 1909 9 SI MM NOT_NAMED 1909-03-09 03:00:00 TS -13.2376 55.5500 main 593 549 _________P____ -1 -13.2376 55.5500 TC 7 262
1909068S13056 1909 9 SI MM NOT_NAMED 1909-03-09 06:00:00 TS -13.3000 55.2000 main 549 515 _________O____ -1 -13.3000 55.2000 TC 7 257
1909068S13056 1909 9 SI MM NOT_NAMED 1909-03-09 09:00:00 TS -13.4000 54.8500 main 515 471 _________P____ -1 -13.4000 54.8500 TC 7 254
1909068S13056 1909 9 SI MM NOT_NAMED 1909-03-09 12:00:00 TS -13.5000 54.5000 main 471 441 _________O____ -1 -13.5000 54.5000 TC 7 258
1909068S13056 1909 9 SI MM NOT_NAMED 1909-03-09 15:00:00 TS -13.5500 54.1424 main 432 398 _________P____ -1 -13.5500 54.1424 TC 7 262
1909068S13056 1909 9 SI MM NOT_NAMED 1909-03-09 18:00:00 TS -13.6000 53.8000 main 398 364 _________O____ -1 -13.6000 53.8000 TC 7 256
1909068S13056 1909 9 SI MM NOT_NAMED 1909-03-09 21:00:00 TS -13.7075 53.4851 main 364 330 _________P____ -1 -13.7075 53.4851 TC 6 251
1909068S13056 1909 9 SI MM NOT_NAMED 1909-03-10 00:00:00 TS -13.8000 53.2000 main 330 311 _________O____ -1 -13.8000 53.2000 TC 5 259
1909068S13056 1909 9 SI MM NOT_NAMED 1909-03-10 03:00:00 TS -13.8075 52.9424 main 302 280 _________P____ -1 -13.8075 52.9424 TC 5 270
1909068S13056 1909 9 SI MM NOT_NAMED 1909-03-10 06:00:00 TS -13.8000 52.7000 main 280 259 _________O____ -1 -13.8000 52.7000 TC 5 267
1909068S13056 1909 9 SI MM NOT_NAMED 1909-03-10 09:00:00 TS -13.8350 52.4425 main 248 226 _________P____ -1 -13.8350 52.4425 TC 5 258
1909068S13056 1909 9 SI MM NOT_NAMED 1909-03-10 12:00:00 TS -13.9000 52.2000 main 226 205 _________O____ -1 -13.9000 52.2000 TC 5 249
1909068S13056 1909 9 SI MM NOT_NAMED 1909-03-10 15:00:00 TS -13.9999 52.0000 main 205 181 _________P____ -1 -13.9999 52.0000 TC 4 243
1909068S13056 1909 9 SI MM NOT_NAMED 1909-03-10 18:00:00 TS -14.1000 51.8000 main 181 157 _________O____ -1 -14.1000 51.8000 TC 5 250
1909068S13056 1909 9 SI MM NOT_NAMED 1909-03-10 21:00:00 TS -14.1575 51.5575 main 157 126 _________P____ -1 -14.1575 51.5575 TC 5 258
1909068S13056 1909 9 SI MM NOT_NAMED 1909-03-11 00:00:00 TS -14.2000 51.3000 main 126 106 _________O____ -1 -14.2000 51.3000 TC 5 259
1909068S13056 1909 9 SI MM NOT_NAMED 1909-03-11 03:00:00 TS -14.2500 51.0425 main 97 72 _________P____ -1 -14.2500 51.0425 TC 5 258
1909068S13056 1909 9 SI MM NOT_NAMED 1909-03-11 06:00:00 TS -14.3000 50.8000 main 72 53 _________O____ -1 -14.3000 50.8000 TC 4 257
1909068S13056 1909 9 SI MM NOT_NAMED 1909-03-11 09:00:00 TS -14.3500 50.5925 main 53 31 _________P____ -1 -14.3500 50.5925 TC 4 256
1909068S13056 1909 9 SI MM NOT_NAMED 1909-03-11 12:00:00 TS -14.4000 50.4000 main 31 10 _________O____ -1 -14.4000 50.4000 TC 4 255
1909068S13056 1909 9 SI MM NOT_NAMED 1909-03-11 15:00:00 TS -14.4500 50.2000 main 10 0 _________P____ -1 -14.4500 50.2000 TC 4 256
1909068S13056 1909 9 SI MM NOT_NAMED 1909-03-11 18:00:00 TS -14.5000 50.0000 main 0 0 _________O____ -1 -14.5000 50.0000 TC 4 256
1909068S13056 1909 9 SI MM NOT_NAMED 1909-03-11 21:00:00 TS -14.5500 49.7925 main 0 0 _________P____ -1 -14.5500 49.7925 TC 4 256
1909068S13056 1909 9 SI MM NOT_NAMED 1909-03-12 00:00:00 TS -14.6000 49.6000 main 0 0 _________O____ -1 -14.6000 49.6000 TC 3 252
1909068S13056 1909 9 SI MM NOT_NAMED 1909-03-12 03:00:00 TS -14.6575 49.4500 main 0 0 _________P____ -1 -14.6575 49.4500 TC 3 251
1909068S13056 1909 9 SI MM NOT_NAMED 1909-03-12 06:00:00 TS -14.7000 49.3000 main 0 0 _________O____ -1 -14.7000 49.3000 TC 3 263
1909068S13056 1909 9 SI MM NOT_NAMED 1909-03-12 09:00:00 TS -14.7000 49.1000 main 0 0 _________P____ -1 -14.7000 49.1000 TC 4 270
1909068S13056 1909 9 SI MM NOT_NAMED 1909-03-12 12:00:00 TS -14.7000 48.9000 main 0 0 _________O____ -1 -14.7000 48.9000 TC 3 264
1909068S13056 1909 9 SI MM NOT_NAMED 1909-03-12 15:00:00 TS -14.7350 48.7425 main 0 0 _________P____ -1 -14.7350 48.7425 TC 3 251
1909068S13056 1909 9 SI MM NOT_NAMED 1909-03-12 18:00:00 TS -14.8000 48.6000 main 0 0 _________O____ -1 -14.8000 48.6000 TC 3 239
1909068S13056 1909 9 SI MM NOT_NAMED 1909-03-12 21:00:00 TS -14.8924 48.4725 main 0 0 _________P____ -1 -14.8924 48.4725 TC 4 236
1909068S13056 1909 9 SI MM NOT_NAMED 1909-03-13 00:00:00 TS -15.0000 48.3000 main 0 0 _________O____ -1 -15.0000 48.3000 TC 5 244
1909068S13056 1909 9 SI MM NOT_NAMED 1909-03-13 03:00:00 TS -15.1075 48.0225 main 0 0 _________P____ -1 -15.1075 48.0225 TC 6 251
1909068S13056 1909 9 SI MM NOT_NAMED 1909-03-13 06:00:00 TS -15.2000 47.7000 main 0 0 _________O____ -1 -15.2000 47.7000 TC 6 256
1909068S13056 1909 9 SI MM NOT_NAMED 1909-03-13 09:00:00 TS -15.2575 47.3850 main 0 0 _________P____ -1 -15.2575 47.3850 TC 6 260
1909068S13056 1909 9 SI MM NOT_NAMED 1909-03-13 12:00:00 TS -15.3000 47.1000 main 0 0 _________O____ -1 -15.3000 47.1000 TC 5 259
1909068S13056 1909 9 SI MM NOT_NAMED 1909-03-13 15:00:00 TS -15.3499 46.8850 main 0 0 _________P____ -1 -15.3499 46.8850 TC 4 255
1909068S13056 1909 9 SI MM NOT_NAMED 1909-03-13 18:00:00 TS -15.4000 46.7000 main 0 0 _________O____ -1 -15.4000 46.7000 TC 4 255
1909068S13056 1909 9 SI MM NOT_NAMED 1909-03-13 21:00:00 TS -15.4501 46.5050 main 10 10 _________P____ -1 -15.4501 46.5050 TC 4 255
1909068S13056 1909 9 SI MM NOT_NAMED 1909-03-14 00:00:00 TS -15.5000 46.3000 main 15 _________O____ -1 -15.5000 46.3000 TC 4 256

About IBTrACS Database

This database is a web-friendly format of International Best Track Archive for Climate Stewardship (IBTrACS), a global best track data archive curated by NOAA dating back to 1842.

Updated: 2021-10-21